Time;durP1;ratioP1;P1;durP2;ratioP2;P2;SDS_P1;SDS_P2;PMS_P1;PMS_P2;Temp;Humidity;BMP_temperature;BMP_pressure;BME280_temperature;BME280_humidity;BME280_pressure;Samples;Min_cycle;Max_cycle;Signal;HPM_P1;HPM_P2
2024/01/03 00:00:30;;;;;;;4.25;1.20;;;8.20;99.90;;;;;;5031990;28;20040;-35
2024/01/03 00:02:56;;;;;;;4.40;0.73;;;8.20;99.90;;;;;;5030886;28;20119;-36
2024/01/03 00:05:24;;;;;;;8.38;1.38;;;8.20;99.90;;;;;;5023517;28;20825;-36
2024/01/03 00:07:52;;;;;;;3.65;1.60;;;8.10;99.90;;;;;;5026207;28;20132;-36
2024/01/03 00:10:50;;;;;;;7.13;1.42;;;8.10;99.90;;;;;;5024691;28;20041;-35
2024/01/03 00:13:37;;;;;;;5.90;0.82;;;8.20;99.90;;;;;;5024142;28;20050;-35
2024/01/03 00:16:06;;;;;;;4.47;1.17;;;8.20;99.90;;;;;;5026481;28;20147;-35
2024/01/03 00:18:36;;;;;;;6.05;0.85;;;8.10;99.90;;;;;;5018956;28;20427;-34
2024/01/03 00:21:03;;;;;;;4.93;0.70;;;8.20;99.90;;;;;;5023332;28;20053;-35
2024/01/03 00:23:49;;;;;;;5.07;0.90;;;8.20;99.90;;;;;;5026255;28;20099;-36
2024/01/03 00:26:15;;;;;;;4.40;1.27;;;8.10;99.90;;;;;;5026815;28;20060;-35
2024/01/03 00:28:42;;;;;;;6.47;1.83;;;8.20;99.90;;;;;;5025736;28;20415;-36
2024/01/03 00:31:09;;;;;;;7.15;0.88;;;8.10;99.90;;;;;;5007175;28;20054;-35
2024/01/03 00:33:42;;;;;;;8.55;0.80;;;8.10;99.90;;;;;;5007742;28;20049;-36
2024/01/03 00:36:11;;;;;;;8.60;1.45;;;8.10;99.90;;;;;;5025291;28;20134;-35
2024/01/03 00:38:42;;;;;;;9.38;1.40;;;8.00;99.90;;;;;;5022340;28;20104;-35
2024/01/03 00:41:12;;;;;;;7.55;0.93;;;8.00;99.90;;;;;;5000736;28;20057;-35
2024/01/03 00:43:39;;;;;;;9.18;1.20;;;7.90;99.90;;;;;;5007079;28;20046;-35
2024/01/03 00:46:06;;;;;;;8.98;1.15;;;7.90;99.90;;;;;;5029948;28;20421;-35
2024/01/03 00:48:33;;;;;;;8.38;4.47;;;7.80;99.90;;;;;;5023820;28;21080;-35
2024/01/03 00:50:59;;;;;;;9.27;3.50;;;7.80;99.90;;;;;;5025253;28;20092;-34
2024/01/03 00:53:25;;;;;;;9.00;1.58;;;7.70;99.90;;;;;;5023184;28;20057;-35
2024/01/03 00:55:52;;;;;;;7.55;1.60;;;7.70;99.90;;;;;;5026358;28;20079;-34
2024/01/03 00:58:18;;;;;;;8.77;2.08;;;7.60;99.90;;;;;;5000812;28;20060;-35
2024/01/03 01:00:44;;;;;;;7.72;1.45;;;7.60;99.90;;;;;;5022214;28;20072;-36
2024/01/03 01:03:11;;;;;;;4.50;0.52;;;7.70;99.90;;;;;;5024893;28;20498;-36
2024/01/03 01:05:37;;;;;;;5.45;1.13;;;7.80;99.90;;;;;;5020902;28;20049;-35
2024/01/03 01:08:03;;;;;;;7.13;1.45;;;7.80;99.90;;;;;;5023055;28;20075;-35
2024/01/03 01:10:28;;;;;;;9.75;2.35;;;7.80;99.90;;;;;;4992424;28;20415;-35
2024/01/03 01:12:55;;;;;;;6.32;0.88;;;7.90;99.90;;;;;;5018373;28;20057;-34
2024/01/03 01:15:21;;;;;;;6.18;2.17;;;8.00;99.90;;;;;;5019380;28;20597;-35
2024/01/03 01:17:47;;;;;;;3.55;1.95;;;8.00;99.90;;;;;;5023748;28;20059;-35
2024/01/03 01:20:13;;;;;;;8.10;2.88;;;8.00;99.90;;;;;;5011054;28;20173;-35
2024/01/03 01:22:38;;;;;;;5.90;0.85;;;8.10;99.90;;;;;;5023049;28;20450;-35
2024/01/03 01:25:05;;;;;;;8.82;0.70;;;8.00;99.90;;;;;;5023923;28;20414;-34
2024/01/03 01:27:30;;;;;;;6.20;0.88;;;8.00;99.90;;;;;;5022441;28;20060;-35
2024/01/03 01:29:56;;;;;;;3.30;1.20;;;8.10;99.90;;;;;;5022770;28;20984;-34
2024/01/03 01:32:22;;;;;;;4.80;0.70;;;8.20;99.90;;;;;;5022576;28;20053;-35
2024/01/03 01:34:47;;;;;;;6.75;1.42;;;8.30;99.90;;;;;;5014100;28;20053;-35
2024/01/03 01:37:13;;;;;;;11.32;1.15;;;8.30;99.90;;;;;;5015070;28;20050;-36
2024/01/03 01:39:40;;;;;;;5.20;2.17;;;8.40;99.90;;;;;;5002045;28;20771;-36
2024/01/03 01:42:05;;;;;;;3.45;0.80;;;8.50;99.90;;;;;;5002815;28;20141;-36
2024/01/03 01:44:31;;;;;;;3.42;0.65;;;8.60;99.90;;;;;;5005798;28;20192;-36
2024/01/03 01:46:58;;;;;;;1.85;0.95;;;8.60;99.90;;;;;;5023986;28;20053;-36
2024/01/03 01:49:26;;;;;;;4.50;1.00;;;8.80;99.90;;;;;;5017810;28;20057;-35
2024/01/03 01:51:52;;;;;;;5.28;0.68;;;8.80;99.90;;;;;;5022907;28;20092;-35
2024/01/03 01:54:19;;;;;;;5.28;0.70;;;8.80;99.90;;;;;;5020818;28;20053;-35
2024/01/03 01:56:46;;;;;;;7.72;0.85;;;8.80;99.90;;;;;;5008903;28;20128;-36
2024/01/03 01:59:13;;;;;;;6.18;0.70;;;8.80;99.90;;;;;;5011446;28;20495;-36
2024/01/03 02:01:39;;;;;;;6.05;1.08;;;8.80;99.90;;;;;;5008134;28;20080;-36
2024/01/03 02:04:07;;;;;;;8.30;1.00;;;8.70;99.90;;;;;;5000107;28;20058;-36
2024/01/03 02:06:34;;;;;;;5.38;0.75;;;8.70;99.90;;;;;;5010327;28;20061;-35
2024/01/03 02:08:59;;;;;;;5.07;0.80;;;8.60;99.90;;;;;;5023635;28;20199;-36
2024/01/03 02:11:25;;;;;;;4.97;4.15;;;8.50;99.90;;;;;;5024666;28;20125;-36
2024/01/03 02:13:51;;;;;;;5.05;0.80;;;8.50;99.90;;;;;;5010712;28;20061;-35
2024/01/03 02:16:17;;;;;;;3.45;0.60;;;8.40;99.90;;;;;;5022078;28;20052;-35
2024/01/03 02:18:44;;;;;;;3.05;0.60;;;8.40;99.90;;;;;;5022091;28;20049;-35
2024/01/03 02:21:19;;;;;;;3.10;0.93;;;8.40;99.90;;;;;;5024104;28;20513;-35
2024/01/03 02:23:45;;;;;;;5.88;1.15;;;8.40;99.90;;;;;;5004575;28;20054;-36
2024/01/03 02:26:10;;;;;;;3.45;0.57;;;8.40;99.90;;;;;;4998342;28;20057;-36
2024/01/03 02:28:37;;;;;;;4.05;0.90;;;8.40;99.90;;;;;;5025286;28;20049;-36
2024/01/03 02:31:03;;;;;;;5.97;0.70;;;8.40;99.90;;;;;;5017541;28;20045;-35
2024/01/03 02:33:28;;;;;;;3.75;1.02;;;8.40;99.90;;;;;;5006677;28;20045;-35
2024/01/03 02:35:54;;;;;;;6.47;0.90;;;8.40;99.90;;;;;;5019341;28;20049;-35
2024/01/03 02:38:23;;;;;;;6.15;0.98;;;8.30;99.90;;;;;;5003734;28;20057;-35
2024/01/03 02:40:51;;;;;;;10.30;1.38;;;8.40;99.90;;;;;;5003385;28;20107;-36
2024/01/03 02:43:17;;;;;;;9.15;1.23;;;8.40;99.90;;;;;;4986014;28;20141;-35
2024/01/03 02:45:43;;;;;;;9.15;2.03;;;8.40;99.90;;;;;;5000469;28;20670;-35
2024/01/03 02:48:08;;;;;;;10.05;1.13;;;8.40;99.90;;;;;;5008909;28;20050;-35
2024/01/03 02:50:34;;;;;;;8.90;1.00;;;8.40;99.90;;;;;;5006247;28;20073;-35
2024/01/03 02:53:01;;;;;;;11.00;1.75;;;8.40;99.90;;;;;;5016939;28;20108;-34
2024/01/03 02:55:27;;;;;;;8.38;1.00;;;8.40;99.90;;;;;;5013934;28;20464;-36
2024/01/03 02:57:53;;;;;;;11.85;2.25;;;8.40;99.90;;;;;;5024033;28;20136;-36
2024/01/03 03:00:18;;;;;;;13.93;1.95;;;8.40;99.90;;;;;;5026750;28;20053;-35
2024/01/03 03:02:44;;;;;;;19.88;2.60;;;8.50;99.90;;;;;;5012137;28;20188;-35
2024/01/03 03:05:10;;;;;;;14.50;1.67;;;8.40;99.90;;;;;;5012067;28;20045;-36
2024/01/03 03:07:36;;;;;;;14.70;2.50;;;8.40;99.90;;;;;;5024256;28;20057;-34
2024/01/03 03:10:02;;;;;;;19.13;2.60;;;8.50;99.90;;;;;;5013458;28;20053;-36
2024/01/03 03:12:28;;;;;;;14.40;1.85;;;8.60;99.90;;;;;;5025447;28;20049;-35
2024/01/03 03:14:54;;;;;;;15.93;2.03;;;8.70;99.90;;;;;;5023351;28;20072;-36
2024/01/03 03:17:19;;;;;;;13.02;2.95;;;8.70;99.90;;;;;;5010082;28;20054;-35
2024/01/03 03:19:45;;;;;;;7.88;1.95;;;8.80;99.90;;;;;;5005489;28;20061;-34
2024/01/03 03:22:11;;;;;;;12.48;2.00;;;9.00;99.90;;;;;;5003678;28;20469;-36
2024/01/03 03:24:36;;;;;;;13.10;2.00;;;9.10;99.90;;;;;;5022759;28;20045;-34
2024/01/03 03:27:02;;;;;;;6.63;1.45;;;9.20;99.90;;;;;;5024762;28;20053;-36
2024/01/03 03:29:28;;;;;;;8.85;1.88;;;9.20;99.90;;;;;;5021101;28;20495;-35
2024/01/03 03:31:53;;;;;;;15.80;1.90;;;9.20;99.90;;;;;;5002934;28;20065;-36
2024/01/03 03:34:19;;;;;;;15.55;2.70;;;9.30;99.90;;;;;;5006900;28;20403;-36
2024/01/03 03:36:45;;;;;;;11.07;2.13;;;9.30;99.90;;;;;;5014113;28;20051;-35
2024/01/03 03:39:11;;;;;;;11.68;3.10;;;9.40;99.90;;;;;;5025521;28;20061;-36
2024/01/03 03:41:37;;;;;;;13.23;1.70;;;9.40;99.90;;;;;;5016070;28;20140;-35
2024/01/03 03:44:03;;;;;;;15.20;1.60;;;9.50;99.90;;;;;;5020690;28;20050;-35
2024/01/03 03:46:29;;;;;;;10.63;3.58;;;9.50;99.90;;;;;;5015154;28;20752;-37
2024/01/03 03:48:55;;;;;;;15.80;3.53;;;9.60;99.90;;;;;;5024110;28;20067;-36
2024/01/03 03:51:20;;;;;;;11.32;2.08;;;9.60;99.90;;;;;;5023925;28;20050;-34
2024/01/03 03:53:46;;;;;;;10.57;3.95;;;9.60;99.90;;;;;;5013704;28;20144;-34
2024/01/03 03:56:24;;;;;;;12.15;3.05;;;9.60;99.90;;;;;;5019176;28;20060;-34
2024/01/03 03:58:50;;;;;;;12.98;1.60;;;9.60;99.90;;;;;;5024335;28;20053;-35
2024/01/03 04:01:16;;;;;;;7.95;1.55;;;9.70;99.90;;;;;;5023503;28;20045;-35
2024/01/03 04:03:41;;;;;;;11.88;1.50;;;9.70;99.90;;;;;;5017542;28;20045;-35
2024/01/03 04:06:07;;;;;;;8.55;2.50;;;9.70;99.90;;;;;;5001038;28;20054;-35
2024/01/03 04:08:33;;;;;;;12.10;1.60;;;9.70;99.90;;;;;;5025455;28;20145;-35
2024/01/03 04:10:58;;;;;;;10.32;1.88;;;9.70;99.90;;;;;;5020302;28;20509;-35
2024/01/03 04:13:25;;;;;;;10.95;1.67;;;9.80;99.90;;;;;;5026464;28;20065;-35
2024/01/03 04:15:51;;;;;;;9.57;1.20;;;9.70;99.90;;;;;;5023482;28;20116;-35
2024/01/03 04:18:17;;;;;;;9.77;1.58;;;9.70;99.90;;;;;;5024468;28;20061;-35
2024/01/03 04:20:42;;;;;;;10.98;1.42;;;9.70;99.90;;;;;;5024835;28;20095;-35
2024/01/03 04:23:08;;;;;;;16.40;2.28;;;9.70;99.90;;;;;;5019823;28;20050;-35
2024/01/03 04:25:34;;;;;;;12.73;2.28;;;9.60;99.90;;;;;;5013689;28;20045;-39
2024/01/03 04:28:03;;;;;;;12.77;2.03;;;9.70;99.90;;;;;;5022058;28;20049;-35
2024/01/03 04:30:28;;;;;;;13.55;1.98;;;9.70;99.90;;;;;;5028408;28;20042;-35
2024/01/03 04:32:54;;;;;;;12.68;2.38;;;9.70;99.90;;;;;;5020240;28;20449;-35
2024/01/03 04:35:20;;;;;;;11.00;1.33;;;9.70;99.90;;;;;;5026503;28;20132;-35
2024/01/03 04:37:46;;;;;;;14.38;2.28;;;9.70;99.90;;;;;;5021880;28;20041;-35
2024/01/03 04:40:11;;;;;;;10.20;1.70;;;9.70;99.90;;;;;;5022883;28;20419;-35
2024/01/03 04:42:37;;;;;;;14.18;1.95;;;9.70;99.90;;;;;;5023890;28;20100;-34
2024/01/03 04:45:04;;;;;;;19.30;2.67;;;9.80;99.90;;;;;;5022384;28;20103;-35
2024/01/03 04:47:30;;;;;;;13.25;1.58;;;9.80;99.90;;;;;;5018842;28;20081;-35
2024/01/03 04:49:56;;;;;;;20.92;2.13;;;9.80;99.90;;;;;;5021374;28;20103;-35
2024/01/03 04:52:21;;;;;;;10.50;1.73;;;9.80;99.90;;;;;;5023456;28;20053;-35
2024/01/03 04:54:47;;;;;;;14.18;2.55;;;9.80;99.90;;;;;;5025038;28;20052;-35
2024/01/03 04:57:13;;;;;;;11.20;1.85;;;9.80;99.90;;;;;;5021382;28;20081;-35
2024/01/03 04:59:39;;;;;;;9.82;1.75;;;9.80;99.90;;;;;;5009336;28;20385;-35
2024/01/03 05:02:04;;;;;;;15.45;2.38;;;9.80;99.90;;;;;;5021927;28;20053;-35
2024/01/03 05:04:30;;;;;;;7.10;1.45;;;9.80;99.90;;;;;;5016771;28;20107;-36
2024/01/03 05:06:56;;;;;;;12.45;1.95;;;9.80;99.90;;;;;;5005209;28;20058;-35
2024/01/03 05:09:23;;;;;;;9.20;1.80;;;9.80;99.90;;;;;;5003998;28;20048;-35
2024/01/03 05:11:49;;;;;;;11.90;1.77;;;9.80;99.90;;;;;;5003291;28;20380;-34
2024/01/03 05:14:14;;;;;;;11.80;1.80;;;9.80;99.90;;;;;;5002428;28;20060;-34
2024/01/03 05:16:41;;;;;;;11.38;2.08;;;9.80;99.90;;;;;;5003911;28;20397;-35
2024/01/03 05:19:07;;;;;;;13.23;1.73;;;9.80;99.90;;;;;;5022123;28;20120;-35
2024/01/03 05:21:32;;;;;;;10.63;1.65;;;9.70;99.90;;;;;;5023453;28;20052;-35
2024/01/03 05:23:58;;;;;;;17.13;2.10;;;9.70;99.90;;;;;;5007823;28;20041;-36
2024/01/03 05:26:24;;;;;;;14.65;2.15;;;9.60;99.90;;;;;;5022024;28;20502;-36
2024/01/03 05:28:49;;;;;;;15.05;2.65;;;9.50;99.90;;;;;;5022262;28;20049;-35
2024/01/03 05:31:15;;;;;;;14.32;2.00;;;9.50;99.90;;;;;;5025559;28;20053;-42
2024/01/03 05:33:41;;;;;;;12.70;1.67;;;9.40;99.90;;;;;;5023049;28;20472;-34
2024/01/03 05:36:07;;;;;;;9.73;2.45;;;9.40;99.90;;;;;;5021586;28;20057;-34
2024/01/03 05:38:37;;;;;;;16.63;2.72;;;9.50;99.90;;;;;;5022799;28;20599;-34
2024/01/03 05:41:02;;;;;;;12.48;1.65;;;9.50;99.90;;;;;;5023627;28;20107;-35
2024/01/03 05:43:28;;;;;;;8.55;1.98;;;9.60;99.90;;;;;;5012704;28;20411;-35
2024/01/03 05:45:54;;;;;;;11.40;2.58;;;9.70;99.90;;;;;;5007123;28;20546;-35
2024/01/03 05:48:19;;;;;;;15.43;2.05;;;9.70;99.90;;;;;;5015913;28;20049;-35
2024/01/03 05:50:45;;;;;;;9.88;1.67;;;9.70;99.90;;;;;;5004085;28;20125;-35
2024/01/03 05:53:11;;;;;;;11.70;1.50;;;9.80;99.90;;;;;;5005064;28;20056;-35
2024/01/03 05:55:37;;;;;;;11.60;1.42;;;9.80;99.90;;;;;;5023678;28;20038;-35
2024/01/03 05:58:02;;;;;;;13.80;1.60;;;9.80;99.90;;;;;;5003177;28;20478;-35
2024/01/03 06:00:28;;;;;;;12.88;2.05;;;9.80;99.90;;;;;;5010349;28;20091;-36
2024/01/03 06:02:54;;;;;;;15.88;2.17;;;9.90;99.90;;;;;;5024085;28;20180;-35
2024/01/03 06:05:21;;;;;;;15.35;1.90;;;9.90;99.90;;;;;;4994017;28;20045;-36
2024/01/03 06:07:47;;;;;;;13.82;1.95;;;9.80;99.90;;;;;;5011760;28;20141;-35
2024/01/03 06:10:13;;;;;;;13.48;2.47;;;9.80;99.90;;;;;;5020730;28;20152;-35
2024/01/03 06:12:41;;;;;;;8.82;1.75;;;9.80;99.90;;;;;;5022208;28;20518;-35
2024/01/03 06:15:07;;;;;;;13.73;2.03;;;9.80;99.90;;;;;;5021531;28;20046;-35
2024/01/03 06:17:33;;;;;;;11.18;1.77;;;9.80;99.90;;;;;;5009487;28;20510;-35
2024/01/03 06:19:59;;;;;;;10.65;1.65;;;9.80;99.90;;;;;;5003888;28;20079;-35
2024/01/03 06:22:24;;;;;;;12.75;2.53;;;9.80;99.90;;;;;;5022988;28;20111;-35
2024/01/03 06:24:50;;;;;;;11.07;1.50;;;9.80;99.90;;;;;;5014001;28;20061;-35
2024/01/03 06:27:16;;;;;;;16.30;2.15;;;9.70;99.90;;;;;;5006015;28;20056;-35
2024/01/03 06:29:42;;;;;;;15.32;2.00;;;9.70;99.90;;;;;;5006779;28;20057;-35
2024/01/03 06:32:08;;;;;;;13.63;2.63;;;9.70;99.90;;;;;;5024511;28;20041;-35
2024/01/03 06:34:34;;;;;;;14.57;1.90;;;9.70;99.90;;;;;;5007032;28;20471;-35
2024/01/03 06:37:00;;;;;;;13.45;1.88;;;9.70;99.90;;;;;;5024887;28;20052;-35
2024/01/03 06:39:26;;;;;;;17.95;2.28;;;9.70;99.90;;;;;;5022790;28;20096;-35
2024/01/03 06:41:52;;;;;;;11.77;1.95;;;9.60;99.90;;;;;;5003995;28;20507;-35
2024/01/03 06:44:18;;;;;;;14.65;2.63;;;9.60;99.90;;;;;;5020999;28;20050;-35
2024/01/03 06:46:43;;;;;;;15.20;2.33;;;9.50;99.90;;;;;;5007331;28;20460;-36
2024/01/03 06:49:09;;;;;;;11.88;1.52;;;9.40;99.90;;;;;;5019385;28;20057;-35
2024/01/03 06:51:35;;;;;;;14.23;2.72;;;9.50;99.90;;;;;;5026087;28;20079;-35
2024/01/03 06:54:00;;;;;;;11.68;2.08;;;9.50;99.90;;;;;;5023019;28;20431;-35
2024/01/03 06:56:26;;;;;;;15.15;2.17;;;9.50;99.90;;;;;;5031650;28;20057;-36
2024/01/03 06:58:52;;;;;;;12.30;2.20;;;9.50;99.90;;;;;;5023488;28;20049;-35
2024/01/03 07:01:18;;;;;;;10.32;1.70;;;9.50;99.90;;;;;;5028569;28;20106;-36
2024/01/03 07:03:44;;;;;;;12.10;2.10;;;9.60;99.90;;;;;;5039684;28;20067;-36
2024/01/03 07:06:10;;;;;;;10.73;1.92;;;9.60;99.90;;;;;;5007196;28;20063;-36
2024/01/03 07:08:35;;;;;;;13.48;1.50;;;9.60;99.90;;;;;;5021454;28;20054;-36
2024/01/03 07:11:03;;;;;;;9.48;1.90;;;9.60;99.90;;;;;;5021313;28;20045;-35
2024/01/03 07:13:29;;;;;;;13.40;2.25;;;9.60;99.90;;;;;;5018568;28;20567;-35
2024/01/03 07:15:55;;;;;;;20.60;2.70;;;9.70;99.90;;;;;;5023742;28;20058;-35
2024/01/03 07:18:20;;;;;;;18.15;2.20;;;9.60;99.90;;;;;;5023419;28;20064;-35
2024/01/03 07:20:46;;;;;;;13.90;1.38;;;9.60;99.90;;;;;;5020121;28;20053;-35
2024/01/03 07:23:12;;;;;;;12.60;2.42;;;9.50;99.90;;;;;;5019603;28;20045;-36
2024/01/03 07:25:37;;;;;;;13.07;1.75;;;9.50;99.90;;;;;;5019440;28;20415;-35
2024/01/03 07:28:04;;;;;;;13.85;1.80;;;9.50;99.90;;;;;;5022686;28;20057;-34
2024/01/03 07:30:29;;;;;;;18.00;2.03;;;9.50;99.90;;;;;;5026015;28;20041;-35
2024/01/03 07:32:57;;;;;;;12.52;2.25;;;9.40;99.90;;;;;;5023425;28;20045;-34
2024/01/03 07:35:24;;;;;;;11.90;2.00;;;9.40;99.90;;;;;;5023614;28;20061;-35
2024/01/03 07:37:50;;;;;;;13.65;2.28;;;9.40;99.90;;;;;;5006940;28;20397;-35
2024/01/03 07:40:15;;;;;;;16.77;1.70;;;9.40;99.90;;;;;;5013758;28;20052;-35
2024/01/03 07:42:42;;;;;;;13.98;2.05;;;9.40;99.90;;;;;;5023915;28;20045;-35
2024/01/03 07:45:08;;;;;;;11.98;2.35;;;9.40;99.90;;;;;;5024108;28;20050;-35
2024/01/03 07:47:34;;;;;;;13.15;2.17;;;9.40;99.90;;;;;;5019714;28;21590;-35
2024/01/03 07:50:00;;;;;;;14.32;1.90;;;9.40;99.90;;;;;;5014597;28;20061;-35
2024/01/03 07:52:26;;;;;;;15.85;2.30;;;9.50;99.90;;;;;;4996170;28;20054;-35
2024/01/03 07:54:51;;;;;;;16.25;2.17;;;9.40;99.90;;;;;;5022577;28;20053;-34
2024/01/03 07:57:17;;;;;;;13.15;1.98;;;9.50;99.90;;;;;;5020240;28;20124;-34
2024/01/03 07:59:45;;;;;;;12.30;1.60;;;9.50;99.90;;;;;;5021559;28;20053;-34
2024/01/03 08:02:14;;;;;;;14.73;2.28;;;9.60;99.90;;;;;;5015805;28;20045;-35
2024/01/03 08:04:40;;;;;;;12.63;2.15;;;9.60;99.90;;;;;;5020010;28;20481;-34
2024/01/03 08:07:06;;;;;;;15.55;2.38;;;9.50;99.90;;;;;;5022909;28;20053;-36
2024/01/03 08:09:37;;;;;;;14.48;2.45;;;9.50;99.90;;;;;;5004626;28;20056;-34
2024/01/03 08:12:06;;;;;;;17.25;2.47;;;9.50;99.90;;;;;;5005286;28;20080;-34
2024/01/03 08:14:32;;;;;;;11.27;2.78;;;9.50;99.90;;;;;;5008660;28;20523;-36
2024/01/03 08:16:58;;;;;;;13.43;2.10;;;9.50;99.90;;;;;;4982022;28;20057;-36
2024/01/03 08:19:23;;;;;;;13.43;2.03;;;9.40;99.90;;;;;;4999622;28;20127;-35
2024/01/03 08:21:49;;;;;;;13.38;2.38;;;9.40;99.90;;;;;;4984874;28;20411;-35
2024/01/03 08:24:15;;;;;;;13.38;1.92;;;9.40;99.90;;;;;;5014143;28;20060;-35
2024/01/03 08:26:40;;;;;;;14.85;2.15;;;9.40;99.90;;;;;;5003997;28;20132;-35
2024/01/03 08:29:06;;;;;;;15.98;2.35;;;9.40;99.90;;;;;;5020962;28;20475;-36
2024/01/03 08:31:33;;;;;;;16.02;2.10;;;9.50;99.90;;;;;;5021378;28;20057;-34
2024/01/03 08:33:59;;;;;;;15.40;1.92;;;9.50;99.90;;;;;;5006791;28;20057;-34
2024/01/03 08:36:41;;;;;;;16.92;2.53;;;9.50;99.90;;;;;;5024426;28;20694;-34
2024/01/03 08:39:07;;;;;;;13.50;2.08;;;9.50;99.90;;;;;;5021067;28;20140;-35
2024/01/03 08:41:34;;;;;;;11.23;1.88;;;9.50;99.90;;;;;;5020875;28;20491;-34
2024/01/03 08:44:02;;;;;;;15.68;2.53;;;9.50;99.90;;;;;;5014099;28;20055;-34
2024/01/03 08:46:32;;;;;;;13.90;1.80;;;9.50;99.90;;;;;;5018246;28;20453;-34
2024/01/03 08:48:58;;;;;;;14.00;2.63;;;9.50;99.90;;;;;;5021229;28;20094;-35
2024/01/03 08:51:24;;;;;;;13.50;1.30;;;9.50;99.90;;;;;;5024397;28;20065;-34
2024/01/03 08:53:50;;;;;;;11.40;1.88;;;9.50;99.90;;;;;;5020789;28;20053;-35
2024/01/03 08:56:17;;;;;;;10.57;1.80;;;9.50;99.90;;;;;;5023958;28;20160;-34
2024/01/03 08:58:45;;;;;;;16.35;2.28;;;9.50;99.90;;;;;;5016067;28;20096;-35
2024/01/03 09:01:20;;;;;;;15.50;1.80;;;9.50;99.90;;;;;;5018954;28;20052;-35
2024/01/03 09:03:47;;;;;;;12.93;2.20;;;9.50;99.90;;;;;;5022158;28;20049;-35
2024/01/03 09:06:23;;;;;;;17.92;2.15;;;9.50;99.90;;;;;;5020783;28;20049;-34
2024/01/03 09:08:50;;;;;;;11.15;1.73;;;9.50;99.90;;;;;;5026513;28;20045;-34
2024/01/03 09:11:22;;;;;;;11.98;1.88;;;9.50;99.90;;;;;;5014347;28;20479;-35
2024/01/03 09:13:49;;;;;;;11.50;1.52;;;9.50;99.90;;;;;;5015185;28;20502;-35
2024/01/03 09:16:18;;;;;;;12.82;1.27;;;9.50;99.90;;;;;;5021489;28;20396;-34
2024/01/03 09:18:44;;;;;;;8.73;1.30;;;9.50;99.90;;;;;;5010599;28;20551;-35
2024/01/03 09:21:10;;;;;;;14.75;1.88;;;9.50;99.90;;;;;;5018458;28;20045;-33
2024/01/03 09:23:36;;;;;;;12.93;2.28;;;9.50;99.90;;;;;;5021711;28;20127;-34
2024/01/03 09:26:05;;;;;;;11.45;2.08;;;9.40;99.90;;;;;;5021275;28;20062;-36
2024/01/03 09:28:31;;;;;;;10.10;1.60;;;9.40;99.90;;;;;;5020761;28;20564;-34
2024/01/03 09:30:57;;;;;;;11.43;1.63;;;9.40;99.90;;;;;;5023736;28;20045;-35
2024/01/03 09:33:23;;;;;;;10.45;1.38;;;9.30;99.90;;;;;;5001514;28;20529;-34
2024/01/03 09:35:49;;;;;;;11.15;1.98;;;9.30;99.90;;;;;;5020916;28;20136;-34
2024/01/03 09:38:15;;;;;;;12.75;1.85;;;9.40;99.90;;;;;;5020829;28;20574;-34
2024/01/03 09:40:41;;;;;;;9.60;1.35;;;9.40;99.90;;;;;;5021158;28;20405;-34
2024/01/03 09:43:07;;;;;;;11.63;1.95;;;9.40;99.90;;;;;;5021564;28;20049;-35
2024/01/03 09:45:33;;;;;;;10.38;1.75;;;9.40;99.90;;;;;;5022584;28;20099;-34
2024/01/03 09:47:59;;;;;;;12.50;1.75;;;9.50;99.90;;;;;;5022199;28;20078;-35
2024/01/03 09:50:25;;;;;;;8.18;1.58;;;9.50;99.90;;;;;;5013499;28;20465;-35
2024/01/03 09:52:55;;;;;;;9.50;1.20;;;9.50;99.90;;;;;;4999939;28;20423;-35
2024/01/03 09:55:21;;;;;;;16.33;2.22;;;9.50;99.90;;;;;;5012043;28;20495;-36
2024/01/03 09:57:49;;;;;;;14.48;1.98;;;9.50;99.90;;;;;;5028089;28;20048;-35
2024/01/03 10:00:16;;;;;;;9.43;1.67;;;9.50;99.90;;;;;;5026864;28;20049;-36
2024/01/03 10:02:45;;;;;;;13.15;2.20;;;9.50;99.90;;;;;;5026361;28;20064;-35
2024/01/03 10:05:21;;;;;;;12.85;1.92;;;9.50;99.90;;;;;;5022323;28;20053;-35
2024/01/03 10:07:47;;;;;;;17.23;2.50;;;9.50;99.90;;;;;;5024494;28;20060;-35
2024/01/03 10:10:27;;;;;;;16.48;2.03;;;9.50;99.90;;;;;;5026387;28;20679;-35
2024/01/03 10:12:53;;;;;;;16.42;2.40;;;9.50;99.90;;;;;;5018463;28;20083;-35
2024/01/03 10:15:19;;;;;;;18.63;2.25;;;9.50;99.90;;;;;;5023606;28;20061;-35
2024/01/03 10:17:46;;;;;;;16.20;2.10;;;9.60;99.90;;;;;;5003239;28;20151;-40
2024/01/03 10:20:26;;;;;;;13.55;2.03;;;9.60;99.90;;;;;;5014846;28;20502;-35
2024/01/03 10:23:09;;;;;;;15.38;2.47;;;9.60;99.90;;;;;;5019384;28;20041;-36
2024/01/03 10:25:35;;;;;;;;;;;9.70;99.90;;;;;;5023435;28;20107;-49
2024/01/03 10:28:05;;;;;;;18.88;2.83;;;9.70;99.90;;;;;;5015645;28;20026;-36
2024/01/03 10:30:32;;;;;;;13.55;2.50;;;9.80;99.90;;;;;;5013805;28;20062;-37
2024/01/03 10:33:08;;;;;;;19.40;3.10;;;9.80;99.90;;;;;;5024677;28;20126;-35
2024/01/03 10:35:36;;;;;;;19.30;3.33;;;9.80;99.90;;;;;;5022969;28;20485;-35
2024/01/03 10:38:03;;;;;;;14.45;1.85;;;9.80;99.90;;;;;;5015915;28;20514;-35
2024/01/03 10:40:33;;;;;;;16.60;2.22;;;9.80;99.90;;;;;;5014316;28;20140;-35
2024/01/03 10:43:00;;;;;;;19.92;2.47;;;9.90;99.90;;;;;;5020648;28;20079;-35
2024/01/03 10:45:27;;;;;;;19.67;2.50;;;9.80;99.90;;;;;;5019659;28;20132;-34
2024/01/03 10:47:53;;;;;;;22.52;2.85;;;9.80;99.90;;;;;;5019948;28;20057;-34
2024/01/03 10:50:20;;;;;;;19.67;3.05;;;9.80;99.90;;;;;;5004763;28;20798;-35
2024/01/03 10:52:46;;;;;;;18.58;2.30;;;9.80;99.90;;;;;;5019660;28;20057;-34
2024/01/03 10:55:20;;;;;;;19.48;3.63;;;9.70;99.90;;;;;;5024080;28;20554;-34
2024/01/03 10:58:18;;;;;;;15.88;2.15;;;9.70;99.90;;;;;;5015913;28;20053;-35
2024/01/03 11:01:23;;;;;;;8.60;1.70;;;9.60;99.90;;;;;;5011115;28;20116;-34
2024/01/03 11:04:30;;;;;;;6.75;1.23;;;9.40;99.90;;;;;;5022141;28;20408;-34
2024/01/03 11:07:07;;;;;;;10.52;1.52;;;9.40;99.90;;;;;;5006437;28;20513;-34
2024/01/03 11:09:35;;;;;;;6.07;1.63;;;9.30;99.90;;;;;;5022721;28;20145;-34
2024/01/03 11:12:13;;;;;;;8.60;1.35;;;9.30;99.90;;;;;;5023858;28;20052;-34
2024/01/03 11:14:39;;;;;;;9.10;1.58;;;9.30;99.90;;;;;;5022850;28;20061;-34
2024/01/03 11:17:08;;;;;;;11.75;1.70;;;9.30;99.90;;;;;;5017405;28;20056;-34
2024/01/03 11:19:35;;;;;;;10.00;1.33;;;9.20;99.90;;;;;;5004707;28;20769;-34
2024/01/03 11:22:05;;;;;;;10.57;1.75;;;9.30;99.90;;;;;;5016031;28;20053;-34
2024/01/03 11:24:30;;;;;;;15.77;1.50;;;9.20;99.90;;;;;;5024997;28;20509;-34
2024/01/03 11:26:56;;;;;;;14.00;1.73;;;9.20;99.90;;;;;;5006055;28;20065;-34
2024/01/03 11:29:46;;;;;;;12.80;1.88;;;9.20;99.90;;;;;;5017571;28;20092;-34
2024/01/03 11:32:26;;;;;;;11.73;1.55;;;9.20;99.90;;;;;;5006273;28;20100;-34
2024/01/03 11:34:52;;;;;;;12.35;1.70;;;9.20;99.90;;;;;;5005445;28;20130;-34
2024/01/03 11:37:20;;;;;;;13.70;1.35;;;9.20;99.90;;;;;;5004927;28;20553;-34
2024/01/03 11:39:50;;;;;;;12.02;1.55;;;9.20;99.90;;;;;;5005635;28;20141;-33
2024/01/03 11:42:20;;;;;;;14.98;1.83;;;9.10;99.90;;;;;;5015104;28;20061;-34
2024/01/03 11:44:46;;;;;;;10.27;1.52;;;9.10;99.90;;;;;;5024557;28;20051;-34
2024/01/03 11:47:13;;;;;;;9.52;1.63;;;9.10;99.90;;;;;;5018628;28;20507;-34
2024/01/03 11:49:40;;;;;;;9.15;1.30;;;9.10;99.90;;;;;;5029566;28;20053;-34
2024/01/03 11:52:06;;;;;;;7.80;1.40;;;9.00;99.90;;;;;;5004800;28;20064;-34
2024/01/03 11:54:34;;;;;;;8.43;1.20;;;9.00;99.90;;;;;;5012173;28;20442;-34
2024/01/03 11:57:09;;;;;;;14.20;1.38;;;9.00;99.90;;;;;;5015472;28;20054;-34
2024/01/03 11:59:35;;;;;;;10.60;1.10;;;8.90;99.90;;;;;;5023539;28;20060;-34
2024/01/03 12:02:01;;;;;;;14.55;1.42;;;8.90;99.90;;;;;;5023702;28;20183;-34
2024/01/03 12:04:27;;;;;;;11.07;1.63;;;8.90;99.90;;;;;;5022475;28;20052;-34
2024/01/03 12:06:57;;;;;;;10.13;2.00;;;8.90;99.90;;;;;;5021591;28;20084;-33
2024/01/03 12:09:24;;;;;;;15.30;1.80;;;8.90;99.90;;;;;;5024017;28;20511;-34
2024/01/03 12:11:50;;;;;;;8.50;1.30;;;8.90;99.90;;;;;;5026150;28;20049;-34
2024/01/03 12:14:18;;;;;;;11.32;2.13;;;8.90;99.90;;;;;;5020977;28;20057;-34
2024/01/03 12:16:48;;;;;;;7.72;1.42;;;8.90;99.90;;;;;;5022848;28;20057;-34
2024/01/03 12:19:32;;;;;;;9.25;1.00;;;8.90;99.90;;;;;;5024306;28;20474;-35
2024/01/03 12:21:59;;;;;;;8.40;0.98;;;8.90;99.90;;;;;;5024874;28;20045;-35
2024/01/03 12:24:43;;;;;;;7.47;1.55;;;8.80;99.90;;;;;;5023800;28;20057;-35
2024/01/03 12:27:10;;;;;;;9.05;1.27;;;8.80;99.90;;;;;;5017609;28;20057;-33
2024/01/03 12:29:41;;;;;;;7.15;0.70;;;8.70;99.90;;;;;;5020916;28;20059;-36
2024/01/03 12:32:18;;;;;;;7.32;0.95;;;8.70;99.90;;;;;;5024468;28;20144;-35
2024/01/03 12:34:46;;;;;;;8.90;1.20;;;8.70;99.90;;;;;;5007069;28;20042;-34
2024/01/03 12:37:12;;;;;;;8.93;1.25;;;8.70;99.90;;;;;;5011563;28;20045;-34
2024/01/03 12:39:38;;;;;;;8.70;1.15;;;8.70;99.90;;;;;;4999625;28;20049;-34
2024/01/03 12:42:09;;;;;;;7.75;0.60;;;8.70;99.90;;;;;;5005448;28;20100;-34
2024/01/03 12:44:39;;;;;;;9.52;1.40;;;8.70;99.90;;;;;;5022143;28;20056;-34
2024/01/03 12:47:08;;;;;;;7.20;0.75;;;8.70;99.90;;;;;;4980581;28;20058;-34
2024/01/03 12:49:36;;;;;;;7.22;1.08;;;8.70;99.90;;;;;;5024983;28;20092;-34
2024/01/03 12:52:01;;;;;;;9.70;0.93;;;8.70;99.90;;;;;;5024198;28;20049;-34